Quick Links (Output Below):   Max & Min Temps   /   Climate Reports   /   Zone Forecasts
River Forecasts   /   Forestry Forecasts   /   Aviation Forecasts   /   Radars   /   Features

Terminal Aerodrome Forecast (Jonesboro)

Pick a Site:
Arkadelphia | El Dorado | Fayetteville | Fort Smith | Harrison | Highfill | Hot Springs | Jonesboro
Little Rock | Monticello | Mountain Home | Pine Bluff | Texarkana
 Forecast 

KJBR 291151Z 2912/3012 36005KT P6SM SKC
     FM291500 03007KT P6SM SCT060
     FM300000 VRB02KT P6SM SCT250=


 Latest METARs (Observations) 
How to Decode METARs
14Z KJBR 291353Z AUTO 05007KT 10SM CLR 21/14 A3015 RMK AO2 SLP206
         T02060144
         
13Z KJBR 291253Z AUTO 03005KT 10SM CLR 20/14 A3014 RMK AO2 SLP203
         T02000139
         
12Z KJBR 291153Z AUTO 01003KT 10SM CLR 18/14 A3013 RMK AO2 SLP198
         T01780139 10217 20172 53010
         
11Z KJBR 291053Z AUTO 36004KT 10SM CLR 18/14 A3011 RMK AO2 SLP194
         T01780139
         
10Z KJBR 290953Z AUTO 35003KT 10SM CLR 18/14 A3010 RMK AO2 SLP190
         T01830144
         
09Z KJBR 290853Z AUTO 02005KT 10SM BKN080 19/14 A3010 RMK AO2 SLP188
         T01940144 53001
         
08Z KJBR 290753Z AUTO 03005KT 10SM FEW080 20/14 A3009 RMK AO2 SLP186
         T02000144
         
07Z KJBR 290653Z AUTO 03005KT 10SM BKN080 21/16 A3009 RMK AO2 SLP186
         T02060156
         
06Z KJBR 290553Z AUTO 04010KT 10SM SCT065 22/16 A3009 RMK AO2 SLP187
         T02170161 10278 20217 402940200 53009
         
05Z KJBR 290453Z AUTO 05006KT 10SM BKN055 BKN070 23/18 A3008 RMK AO2
         SLP184 T02280178
         
***** Today's Observations (Above) *****


Back to Main Page
http://www.srh.noaa.gov/lzk/qfcst.php

USA.gov is the U.S. government's official web portal to all federal, state and local government web resources and services.